Time;durP1;ratioP1;P1;durP2;ratioP2;P2;SDS_P1;SDS_P2;PMS_P1;PMS_P2;Temp;Humidity;BMP_temperature;BMP_pressure;BME280_temperature;BME280_humidity;BME280_pressure;Samples;Min_cycle;Max_cycle;Signal;HPM_P1;HPM_P2
2022/04/05 00:00:13;;;;;;;44.20;18.80;;;;;;;;;;5056042;28;20443;-77
2022/04/05 00:02:38;;;;;;;53.25;19.50;;;;;;;;;;5038483;28;20025;-77
2022/04/05 00:05:07;;;;;;;44.63;18.38;;;;;;;;;;5055869;28;20052;-76
2022/04/05 00:07:32;;;;;;;49.53;18.75;;;;;;;;;;5056264;28;20171;-77
2022/04/05 00:09:57;;;;;;;43.22;18.08;;;;;;;;;;5055480;28;20120;-76
2022/04/05 00:12:23;;;;;;;51.70;19.65;;;;;;;;;;5055922;28;20091;-77
2022/04/05 00:14:49;;;;;;;52.15;18.30;;;;;;;;;;5056409;28;20024;-77
2022/04/05 00:17:15;;;;;;;46.95;18.80;;;;;;;;;;5037972;28;20504;-76
2022/04/05 00:19:40;;;;;;;53.13;19.05;;;;;;;;;;5055677;28;20029;-77
2022/04/05 00:22:06;;;;;;;45.38;19.35;;;;;;;;;;5055687;28;20056;-77
2022/04/05 00:24:31;;;;;;;51.80;20.15;;;;;;;;;;5055530;28;20347;-76
2022/04/05 00:26:58;;;;;;;49.58;20.17;;;;;;;;;;5055509;28;20029;-77
2022/04/05 00:29:24;;;;;;;49.45;20.63;;;;;;;;;;5055429;28;20032;-76
2022/04/05 00:31:50;;;;;;;51.08;18.90;;;;;;;;;;5037804;28;20029;-77
2022/04/05 00:34:16;;;;;;;50.58;20.02;;;;;;;;;;5037696;28;20355;-76
2022/04/05 00:36:41;;;;;;;50.22;22.05;;;;;;;;;;5054650;28;20045;-76
2022/04/05 00:39:07;;;;;;;46.78;19.23;;;;;;;;;;5055433;28;20029;-77
2022/04/05 00:41:33;;;;;;;47.47;17.88;;;;;;;;;;5055116;28;20127;-76
2022/04/05 00:43:58;;;;;;;47.00;18.77;;;;;;;;;;5056411;28;20029;-77
2022/04/05 00:46:25;;;;;;;50.30;17.73;;;;;;;;;;5055881;28;20435;-77
2022/04/05 00:48:57;;;;;;;48.60;18.75;;;;;;;;;;5055168;28;20083;-76
2022/04/05 00:51:24;;;;;;;39.97;17.38;;;;;;;;;;5054809;28;20040;-77
2022/04/05 00:53:58;;;;;;;43.92;17.33;;;;;;;;;;5037435;28;20074;-76
2022/04/05 00:56:23;;;;;;;45.85;18.23;;;;;;;;;;5037058;28;20044;-77
2022/04/05 00:58:50;;;;;;;45.38;17.83;;;;;;;;;;5037141;28;20033;-77
2022/04/05 01:01:18;;;;;;;41.92;17.63;;;;;;;;;;5054751;28;20453;-77
2022/04/05 01:03:48;;;;;;;60.00;20.08;;;;;;;;;;5037361;28;20091;-77
2022/04/05 01:06:18;;;;;;;46.33;19.73;;;;;;;;;;5038925;28;20169;-77
2022/04/05 01:08:46;;;;;;;50.38;19.73;;;;;;;;;;5052958;28;20032;-77
2022/04/05 01:11:11;;;;;;;49.95;20.00;;;;;;;;;;5054712;28;20029;-77
2022/04/05 01:13:38;;;;;;;53.92;19.05;;;;;;;;;;5054648;28;20033;-76
2022/04/05 01:16:04;;;;;;;46.00;19.50;;;;;;;;;;5036930;28;20033;-77
2022/04/05 01:18:29;;;;;;;52.58;20.70;;;;;;;;;;5054809;28;20039;-77
2022/04/05 01:20:56;;;;;;;53.85;20.75;;;;;;;;;;5053774;28;20112;-78
2022/04/05 01:23:22;;;;;;;51.72;20.45;;;;;;;;;;5054575;28;20025;-77
2022/04/05 01:25:47;;;;;;;50.50;20.15;;;;;;;;;;5036590;28;20092;-77
2022/04/05 01:28:13;;;;;;;56.03;20.30;;;;;;;;;;5054425;28;20035;-77
2022/04/05 01:30:38;;;;;;;46.13;21.00;;;;;;;;;;5054286;28;20192;-77
2022/04/05 01:33:04;;;;;;;53.00;20.02;;;;;;;;;;5054291;28;20052;-77
2022/04/05 01:35:29;;;;;;;47.95;20.10;;;;;;;;;;5036265;28;20029;-77
2022/04/05 01:37:55;;;;;;;47.03;19.45;;;;;;;;;;5036114;28;20414;-76
2022/04/05 01:40:20;;;;;;;51.53;20.15;;;;;;;;;;5036302;28;20041;-77
2022/04/05 01:42:47;;;;;;;60.80;21.30;;;;;;;;;;5054254;28;20110;-77
2022/04/05 01:45:13;;;;;;;70.95;23.88;;;;;;;;;;5054125;28;20028;-77
2022/04/05 01:47:38;;;;;;;62.05;21.00;;;;;;;;;;5054809;28;20178;-77
2022/04/05 01:50:04;;;;;;;50.55;19.55;;;;;;;;;;5053862;28;20584;-77
2022/04/05 01:52:30;;;;;;;60.70;19.60;;;;;;;;;;5054314;28;20021;-76
2022/04/05 01:54:55;;;;;;;41.42;17.95;;;;;;;;;;5053991;28;20039;-77
2022/04/05 01:57:21;;;;;;;42.58;17.30;;;;;;;;;;5053986;28;20079;-77
2022/04/05 01:59:47;;;;;;;47.20;17.85;;;;;;;;;;5053980;28;20365;-77
2022/04/05 02:02:13;;;;;;;45.95;18.52;;;;;;;;;;5053884;28;20026;-77
2022/04/05 02:04:38;;;;;;;46.63;19.10;;;;;;;;;;5054087;28;20107;-77
2022/04/05 02:07:14;;;;;;;40.47;18.77;;;;;;;;;;5053918;28;20029;-77
2022/04/05 02:09:40;;;;;;;54.65;19.48;;;;;;;;;;5053882;28;20025;-77
2022/04/05 02:12:06;;;;;;;48.95;20.63;;;;;;;;;;5053896;28;20100;-77
2022/04/05 02:14:32;;;;;;;56.60;19.35;;;;;;;;;;5053859;28;20021;-77
2022/04/05 02:16:57;;;;;;;50.25;20.17;;;;;;;;;;5019797;28;20040;-77
2022/04/05 02:19:23;;;;;;;53.55;21.10;;;;;;;;;;5053516;28;20033;-77
2022/04/05 02:21:49;;;;;;;55.65;21.92;;;;;;;;;;5035983;28;20048;-77
2022/04/05 02:24:16;;;;;;;55.88;22.65;;;;;;;;;;5053726;28;20053;-76
2022/04/05 02:26:41;;;;;;;63.17;24.98;;;;;;;;;;5036257;28;20024;-77
2022/04/05 02:29:07;;;;;;;63.90;25.77;;;;;;;;;;5054258;28;20394;-77
2022/04/05 02:31:32;;;;;;;59.83;23.92;;;;;;;;;;5053839;28;20200;-77
2022/04/05 02:33:58;;;;;;;64.13;25.05;;;;;;;;;;5055835;28;20025;-77
2022/04/05 02:36:23;;;;;;;57.33;24.58;;;;;;;;;;5039985;28;20033;-77
2022/04/05 02:38:49;;;;;;;62.58;25.23;;;;;;;;;;5057879;28;20033;-76
2022/04/05 02:41:15;;;;;;;69.50;26.27;;;;;;;;;;5057507;28;20052;-77
2022/04/05 02:43:40;;;;;;;69.03;27.10;;;;;;;;;;5023766;28;20339;-77
2022/04/05 02:46:08;;;;;;;83.72;30.38;;;;;;;;;;5057939;28;20335;-77
2022/04/05 02:48:34;;;;;;;86.25;30.55;;;;;;;;;;5057820;28;20021;-76
2022/04/05 02:51:00;;;;;;;81.63;28.60;;;;;;;;;;5059298;28;20025;-77
2022/04/05 02:53:25;;;;;;;69.97;26.42;;;;;;;;;;5058752;28;20428;-75
2022/04/05 02:55:52;;;;;;;72.78;28.58;;;;;;;;;;5039805;28;20025;-77
2022/04/05 02:58:18;;;;;;;65.97;25.95;;;;;;;;;;5057699;28;20358;-77
2022/04/05 03:00:43;;;;;;;72.03;27.27;;;;;;;;;;5057135;28;20029;-77
2022/04/05 03:03:09;;;;;;;79.40;28.25;;;;;;;;;;5057201;28;20025;-77
2022/04/05 03:05:35;;;;;;;82.65;28.10;;;;;;;;;;5056959;28;20037;-77
2022/04/05 03:08:00;;;;;;;71.50;27.30;;;;;;;;;;5057152;28;20107;-77
2022/04/05 03:10:27;;;;;;;66.25;26.20;;;;;;;;;;5059503;28;20025;-76
2022/04/05 03:12:52;;;;;;;74.68;29.05;;;;;;;;;;5058298;28;20347;-77
2022/04/05 03:15:17;;;;;;;85.40;30.55;;;;;;;;;;5039177;28;20115;-76
2022/04/05 03:17:45;;;;;;;89.07;34.75;;;;;;;;;;5056642;28;20036;-77
2022/04/05 03:20:12;;;;;;;76.50;27.83;;;;;;;;;;5056780;28;20086;-77
2022/04/05 03:22:39;;;;;;;74.05;26.65;;;;;;;;;;5039286;28;20037;-77
2022/04/05 03:25:05;;;;;;;73.50;26.70;;;;;;;;;;5056892;28;20147;-77
2022/04/05 03:27:30;;;;;;;71.53;27.27;;;;;;;;;;5056733;28;20473;-77
2022/04/05 03:29:56;;;;;;;78.07;27.33;;;;;;;;;;5056574;28;20032;-77
2022/04/05 03:32:21;;;;;;;72.15;26.73;;;;;;;;;;5039251;28;20036;-76
2022/04/05 03:34:49;;;;;;;74.38;26.23;;;;;;;;;;5056733;28;20460;-78
2022/04/05 03:37:15;;;;;;;77.88;26.92;;;;;;;;;;5056482;28;20029;-77
2022/04/05 03:39:41;;;;;;;72.93;27.25;;;;;;;;;;5056034;28;20043;-77
2022/04/05 03:42:06;;;;;;;68.90;25.40;;;;;;;;;;5056291;28;20098;-77
2022/04/05 03:44:34;;;;;;;68.68;27.23;;;;;;;;;;5055785;28;20055;-76
2022/04/05 03:47:01;;;;;;;69.90;24.95;;;;;;;;;;5056186;28;20063;-77
2022/04/05 03:49:26;;;;;;;85.25;28.08;;;;;;;;;;5056277;28;20162;-77
2022/04/05 03:51:52;;;;;;;83.88;28.15;;;;;;;;;;5056485;28;20092;-76
2022/04/05 03:54:17;;;;;;;74.22;27.13;;;;;;;;;;5056679;28;20024;-77
2022/04/05 03:56:42;;;;;;;64.82;22.98;;;;;;;;;;5056111;28;20373;-77
2022/04/05 03:59:08;;;;;;;64.50;25.05;;;;;;;;;;5056054;28;20451;-77
2022/04/05 04:01:33;;;;;;;66.53;26.70;;;;;;;;;;5055875;28;20040;-77
2022/04/05 04:03:59;;;;;;;59.33;24.60;;;;;;;;;;5056125;28;20500;-76
2022/04/05 04:06:24;;;;;;;63.13;25.02;;;;;;;;;;5056136;28;20076;-77
2022/04/05 04:08:50;;;;;;;49.67;20.15;;;;;;;;;;5038029;28;20067;-76
2022/04/05 04:11:15;;;;;;;49.70;20.98;;;;;;;;;;5055816;28;20025;-76
2022/04/05 04:13:41;;;;;;;61.75;22.10;;;;;;;;;;5055852;28;20083;-77
2022/04/05 04:16:07;;;;;;;58.88;21.27;;;;;;;;;;5054768;28;20041;-77
2022/04/05 04:18:33;;;;;;;56.55;20.58;;;;;;;;;;5037845;28;20028;-77
2022/04/05 04:20:58;;;;;;;52.25;22.13;;;;;;;;;;5038078;28;20487;-77
2022/04/05 04:23:24;;;;;;;49.70;20.90;;;;;;;;;;5055623;28;20032;-78
2022/04/05 04:25:49;;;;;;;56.63;20.77;;;;;;;;;;5037837;28;20475;-78
2022/04/05 04:28:15;;;;;;;55.85;22.63;;;;;;;;;;5055563;28;20052;-77
2022/04/05 04:30:40;;;;;;;65.30;22.75;;;;;;;;;;5055466;28;20037;-78
2022/04/05 04:33:06;;;;;;;58.72;22.65;;;;;;;;;;5055466;28;20162;-76
2022/04/05 04:35:32;;;;;;;60.92;22.70;;;;;;;;;;5038133;28;20119;-76
2022/04/05 04:37:58;;;;;;;66.88;24.20;;;;;;;;;;5055305;28;20112;-76
2022/04/05 04:40:25;;;;;;;74.65;28.20;;;;;;;;;;5037388;28;20043;-76
2022/04/05 04:42:51;;;;;;;88.75;31.13;;;;;;;;;;5020827;28;20040;-76
2022/04/05 04:45:17;;;;;;;102.13;40.78;;;;;;;;;;5054896;28;20032;-77
2022/04/05 04:47:42;;;;;;;97.53;36.60;;;;;;;;;;5055104;28;20117;-77
2022/04/05 04:50:10;;;;;;;100.65;38.25;;;;;;;;;;5054998;28;20033;-77
2022/04/05 04:52:36;;;;;;;89.80;37.55;;;;;;;;;;5055010;28;20021;-76
2022/04/05 04:55:01;;;;;;;91.15;38.65;;;;;;;;;;5037698;28;20025;-76
2022/04/05 04:57:27;;;;;;;93.53;35.83;;;;;;;;;;5053349;28;20409;-77
2022/04/05 04:59:52;;;;;;;92.20;35.92;;;;;;;;;;5054467;28;20024;-77
2022/04/05 05:02:19;;;;;;;89.88;36.38;;;;;;;;;;5036620;28;20031;-75
2022/04/05 05:04:44;;;;;;;90.63;35.03;;;;;;;;;;5053380;28;20458;-77
2022/04/05 05:07:10;;;;;;;95.28;36.63;;;;;;;;;;5052248;28;20036;-76
2022/04/05 05:09:35;;;;;;;92.45;36.08;;;;;;;;;;5054380;28;20428;-77
2022/04/05 05:12:01;;;;;;;101.35;37.63;;;;;;;;;;5036097;28;20040;-77
2022/04/05 05:14:27;;;;;;;103.28;37.83;;;;;;;;;;5053776;28;20029;-76
2022/04/05 05:16:53;;;;;;;91.78;34.67;;;;;;;;;;5053807;28;20119;-77
2022/04/05 05:19:20;;;;;;;97.53;38.83;;;;;;;;;;5053795;28;20040;-77
2022/04/05 05:21:45;;;;;;;118.15;48.15;;;;;;;;;;5053319;28;20044;-77
2022/04/05 05:24:11;;;;;;;81.57;32.28;;;;;;;;;;5035192;28;20423;-77
2022/04/05 05:26:36;;;;;;;128.07;50.33;;;;;;;;;;5051354;28;20115;-77
2022/04/05 05:29:03;;;;;;;111.75;49.08;;;;;;;;;;5052200;28;20017;-77
2022/04/05 05:31:28;;;;;;;98.47;38.78;;;;;;;;;;5035414;28;20033;-77
2022/04/05 05:33:54;;;;;;;68.45;27.75;;;;;;;;;;5053560;28;20040;-77
2022/04/05 05:36:20;;;;;;;77.15;29.35;;;;;;;;;;5054063;28;20408;-76
2022/04/05 05:38:45;;;;;;;63.95;24.70;;;;;;;;;;5035960;28;20025;-77
2022/04/05 05:41:11;;;;;;;67.05;27.52;;;;;;;;;;5053605;28;20036;-76
2022/04/05 05:43:38;;;;;;;68.72;27.83;;;;;;;;;;5054422;28;20040;-77
2022/04/05 05:46:05;;;;;;;60.85;23.23;;;;;;;;;;5054669;28;20033;-77
2022/04/05 05:48:30;;;;;;;57.03;23.33;;;;;;;;;;5054171;28;20147;-77
2022/04/05 05:50:56;;;;;;;57.08;22.90;;;;;;;;;;5036641;28;20089;-77
2022/04/05 05:53:22;;;;;;;56.85;24.75;;;;;;;;;;5036297;28;20029;-77
2022/04/05 05:55:48;;;;;;;55.67;24.17;;;;;;;;;;5035942;28;20363;-78
2022/04/05 05:58:13;;;;;;;50.60;24.58;;;;;;;;;;5054229;28;20442;-75
2022/04/05 06:00:39;;;;;;;43.40;21.58;;;;;;;;;;5036542;28;20127;-77
2022/04/05 06:03:05;;;;;;;39.08;20.67;;;;;;;;;;5055503;28;20037;-74
2022/04/05 06:05:30;;;;;;;40.08;21.05;;;;;;;;;;5053801;28;20458;-75
2022/04/05 06:07:56;;;;;;;41.25;20.77;;;;;;;;;;5058041;28;20032;-77
2022/04/05 06:10:21;;;;;;;39.38;22.33;;;;;;;;;;5042280;28;20033;-76
2022/04/05 06:12:48;;;;;;;53.33;24.13;;;;;;;;;;5060514;28;20029;-76
2022/04/05 06:15:14;;;;;;;44.63;21.88;;;;;;;;;;5059488;28;20051;-76
2022/04/05 06:17:41;;;;;;;50.45;24.17;;;;;;;;;;5043231;28;20036;-76
2022/04/05 06:20:08;;;;;;;50.10;24.75;;;;;;;;;;5042080;28;20032;-76
2022/04/05 06:22:49;;;;;;;43.17;24.13;;;;;;;;;;5042593;28;20052;-76
2022/04/05 06:25:19;;;;;;;40.55;22.90;;;;;;;;;;5059968;28;20064;-76
2022/04/05 06:27:45;;;;;;;43.15;22.35;;;;;;;;;;5059484;28;20033;-76
2022/04/05 06:30:12;;;;;;;43.30;22.63;;;;;;;;;;5060166;28;20457;-76
2022/04/05 06:32:38;;;;;;;41.05;22.27;;;;;;;;;;5060217;28;20445;-77
2022/04/05 06:35:04;;;;;;;42.92;23.13;;;;;;;;;;5042299;28;20086;-75
2022/04/05 06:37:29;;;;;;;43.30;23.20;;;;;;;;;;5041390;28;20341;-75
2022/04/05 06:39:55;;;;;;;38.40;23.25;;;;;;;;;;5058264;28;20029;-77
2022/04/05 06:42:21;;;;;;;42.28;22.85;;;;;;;;;;5058789;28;20409;-76
2022/04/05 06:44:46;;;;;;;35.47;22.00;;;;;;;;;;5058926;28;20032;-75
2022/04/05 06:47:12;;;;;;;38.53;22.13;;;;;;;;;;5059616;28;20028;-75
2022/04/05 06:49:38;;;;;;;35.97;21.25;;;;;;;;;;5059907;28;20430;-76
2022/04/05 06:52:04;;;;;;;36.35;21.80;;;;;;;;;;5042196;28;20082;-74
2022/04/05 06:54:29;;;;;;;38.38;21.30;;;;;;;;;;5060054;28;20131;-76
2022/04/05 06:56:55;;;;;;;42.33;20.73;;;;;;;;;;5060128;28;20369;-76
2022/04/05 06:59:20;;;;;;;30.73;19.13;;;;;;;;;;5059015;28;20036;-76
2022/04/05 07:01:46;;;;;;;33.60;20.20;;;;;;;;;;5040660;28;20040;-76
2022/04/05 07:04:13;;;;;;;40.05;21.98;;;;;;;;;;5058950;28;20032;-77
2022/04/05 07:06:38;;;;;;;36.47;21.27;;;;;;;;;;5055639;28;20614;-75
2022/04/05 07:09:07;;;;;;;31.55;19.17;;;;;;;;;;5057616;28;20025;-75
2022/04/05 07:11:32;;;;;;;35.38;18.80;;;;;;;;;;5057653;28;20100;-76
2022/04/05 07:13:58;;;;;;;35.08;17.65;;;;;;;;;;5058490;28;20104;-75
2022/04/05 07:16:24;;;;;;;26.23;16.30;;;;;;;;;;5059912;28;20074;-75
2022/04/05 07:18:50;;;;;;;33.00;19.23;;;;;;;;;;5060845;28;20041;-75
2022/04/05 07:21:16;;;;;;;34.92;18.67;;;;;;;;;;5055445;28;20033;-77
2022/04/05 07:23:44;;;;;;;31.30;18.77;;;;;;;;;;5053758;28;20501;-74
2022/04/05 07:26:10;;;;;;;31.02;20.45;;;;;;;;;;5036901;28;20035;-76
2022/04/05 07:28:36;;;;;;;39.13;20.75;;;;;;;;;;5037158;28;20377;-76
2022/04/05 07:31:02;;;;;;;26.85;17.38;;;;;;;;;;5036658;28;20403;-77
2022/04/05 07:33:28;;;;;;;24.13;15.77;;;;;;;;;;5037395;28;20028;-78
2022/04/05 07:35:53;;;;;;;22.90;14.13;;;;;;;;;;5055456;28;20035;-76
2022/04/05 07:38:18;;;;;;;34.40;15.60;;;;;;;;;;5047836;28;20091;-75
2022/04/05 07:40:51;;;;;;;26.33;15.25;;;;;;;;;;5035222;28;20046;-76
2022/04/05 07:43:18;;;;;;;25.38;14.88;;;;;;;;;;5036478;28;20060;-75
2022/04/05 07:45:44;;;;;;;30.63;16.00;;;;;;;;;;5036664;28;20036;-76
2022/04/05 07:48:10;;;;;;;34.40;18.98;;;;;;;;;;5036253;28;20105;-78
2022/04/05 07:50:36;;;;;;;44.53;23.95;;;;;;;;;;5037482;28;20108;-78
2022/04/05 07:53:01;;;;;;;49.00;28.70;;;;;;;;;;5036452;28;20559;-77
2022/04/05 07:55:27;;;;;;;52.85;30.15;;;;;;;;;;5018234;28;20037;-77
2022/04/05 07:57:52;;;;;;;62.42;34.45;;;;;;;;;;5029030;28;20059;-77
2022/04/05 08:00:18;;;;;;;60.15;33.25;;;;;;;;;;5055510;28;20025;-80
2022/04/05 08:02:44;;;;;;;47.63;27.35;;;;;;;;;;5054305;28;20032;-80
2022/04/05 08:05:09;;;;;;;44.75;26.20;;;;;;;;;;5036791;28;20040;-80
2022/04/05 08:07:35;;;;;;;47.80;28.02;;;;;;;;;;5019815;28;20442;-78
2022/04/05 08:10:00;;;;;;;48.10;26.13;;;;;;;;;;5036335;28;20029;-79
2022/04/05 08:12:26;;;;;;;66.07;35.17;;;;;;;;;;5053973;28;20028;-79
2022/04/05 08:14:53;;;;;;;48.42;26.70;;;;;;;;;;5035514;28;20060;-82
2022/04/05 08:17:18;;;;;;;46.20;27.48;;;;;;;;;;5052535;28;20024;-80
2022/04/05 08:19:43;;;;;;;41.55;23.95;;;;;;;;;;5053482;28;20036;-82
2022/04/05 08:22:09;;;;;;;41.72;24.10;;;;;;;;;;5054653;28;20040;-80
2022/04/05 08:24:35;;;;;;;48.10;26.90;;;;;;;;;;5054588;28;20021;-80
2022/04/05 08:27:00;;;;;;;34.85;20.70;;;;;;;;;;5036086;28;20311;-79
2022/04/05 08:29:26;;;;;;;37.85;22.27;;;;;;;;;;5056392;28;20078;-82
2022/04/05 08:31:52;;;;;;;30.98;19.40;;;;;;;;;;5037544;28;20021;-81
2022/04/05 08:34:18;;;;;;;31.52;19.73;;;;;;;;;;5021815;28;20029;-80
2022/04/05 08:36:44;;;;;;;32.15;19.35;;;;;;;;;;5055479;28;20139;-81
2022/04/05 08:39:10;;;;;;;32.35;19.02;;;;;;;;;;5037567;28;20028;-81
2022/04/05 08:41:35;;;;;;;29.67;19.77;;;;;;;;;;5039079;28;20037;-80
2022/04/05 08:44:01;;;;;;;34.95;19.20;;;;;;;;;;5039070;28;20025;-80
2022/04/05 08:46:27;;;;;;;36.28;23.15;;;;;;;;;;5022762;28;20033;-80
2022/04/05 08:48:53;;;;;;;44.20;24.05;;;;;;;;;;5018034;28;20017;-81
2022/04/05 08:51:18;;;;;;;33.83;19.60;;;;;;;;;;5018349;28;20060;-81
2022/04/05 08:53:43;;;;;;;33.97;18.95;;;;;;;;;;5034876;28;20028;-81
2022/04/05 08:56:09;;;;;;;35.40;21.02;;;;;;;;;;5016761;28;20029;-82
2022/04/05 08:58:35;;;;;;;35.00;21.30;;;;;;;;;;5049462;28;20025;-82
2022/04/05 09:01:00;;;;;;;38.92;21.45;;;;;;;;;;5053040;28;20083;-81
2022/04/05 09:03:28;;;;;;;38.67;19.58;;;;;;;;;;5054890;28;20075;-78
2022/04/05 09:05:54;;;;;;;36.25;19.85;;;;;;;;;;5053465;28;20025;-82
2022/04/05 09:08:22;;;;;;;34.22;18.58;;;;;;;;;;5036762;28;20373;-81
2022/04/05 09:11:03;;;;;;;31.98;18.70;;;;;;;;;;5052601;28;20017;-82
2022/04/05 09:13:28;;;;;;;31.00;17.85;;;;;;;;;;5052543;28;20029;-83
2022/04/05 09:15:58;;;;;;;29.38;18.83;;;;;;;;;;5018139;28;20098;-82
2022/04/05 09:18:40;;;;;;;31.50;15.80;;;;;;;;;;5036222;28;20052;-82
2022/04/05 09:21:09;;;;;;;29.40;14.55;;;;;;;;;;5019039;28;20442;-82
2022/04/05 09:23:38;;;;;;;23.48;14.57;;;;;;;;;;5036833;28;20083;-80
2022/04/05 09:26:05;;;;;;;28.75;17.48;;;;;;;;;;5052886;28;20036;-83
2022/04/05 09:28:38;;;;;;;23.25;15.18;;;;;;;;;;5035846;28;20035;-81
2022/04/05 09:31:08;;;;;;;31.45;17.35;;;;;;;;;;5036923;28;20111;-81
2022/04/05 09:33:36;;;;;;;28.20;15.82;;;;;;;;;;5036661;28;20025;-81
2022/04/05 09:36:07;;;;;;;28.40;13.80;;;;;;;;;;5054241;28;20024;-79
2022/04/05 09:38:33;;;;;;;22.35;12.38;;;;;;;;;;5019858;28;20373;-81
2022/04/05 09:41:18;;;;;;;30.50;12.68;;;;;;;;;;5035801;28;20135;-82
2022/04/05 09:43:51;;;;;;;16.60;11.30;;;;;;;;;;5053604;28;20031;-81
2022/04/05 09:46:16;;;;;;;16.38;10.90;;;;;;;;;;5053179;28;20059;-78
2022/04/05 09:48:42;;;;;;;17.48;10.65;;;;;;;;;;5038332;28;20423;-80
2022/04/05 09:51:12;;;;;;;17.60;10.90;;;;;;;;;;5014683;28;20029;-80
2022/04/05 09:53:42;;;;;;;20.25;10.77;;;;;;;;;;5032491;28;20415;-79
2022/04/05 09:56:11;;;;;;;16.30;10.23;;;;;;;;;;5033911;28;20033;-80
2022/04/05 09:58:46;;;;;;;19.40;10.35;;;;;;;;;;5033104;28;20021;-81
2022/04/05 10:01:11;;;;;;;18.05;9.63;;;;;;;;;;5016718;28;20107;-81
2022/04/05 10:03:42;;;;;;;15.10;10.15;;;;;;;;;;5017079;28;20459;-80
2022/04/05 10:06:08;;;;;;;14.20;9.45;;;;;;;;;;5016952;28;20033;-80
2022/04/05 10:08:35;;;;;;;18.55;9.48;;;;;;;;;;5015311;28;20179;-80
2022/04/05 10:11:00;;;;;;;17.40;10.20;;;;;;;;;;5016562;28;20112;-80
2022/04/05 10:13:27;;;;;;;19.58;10.48;;;;;;;;;;5043026;28;20459;-81
2022/04/05 10:15:52;;;;;;;19.00;11.82;;;;;;;;;;5039071;28;20026;-81
2022/04/05 10:18:20;;;;;;;18.35;9.30;;;;;;;;;;5023448;28;20092;-82
2022/04/05 10:20:52;;;;;;;14.88;10.25;;;;;;;;;;5034651;28;20374;-80
2022/04/05 10:23:22;;;;;;;16.63;10.27;;;;;;;;;;5035101;28;20025;-81
2022/04/05 10:25:50;;;;;;;18.10;10.18;;;;;;;;;;5032723;28;20065;-80
2022/04/05 10:28:16;;;;;;;18.23;10.35;;;;;;;;;;5016517;28;20079;-80
2022/04/05 10:30:43;;;;;;;23.48;10.05;;;;;;;;;;5016494;28;20370;-79
2022/04/05 10:33:21;;;;;;;15.80;9.40;;;;;;;;;;5015923;28;20029;-78
2022/04/05 10:35:55;;;;;;;18.33;9.02;;;;;;;;;;4999316;28;20099;-81
2022/04/05 10:38:20;;;;;;;19.63;9.40;;;;;;;;;;5004818;28;20021;-80
2022/04/05 10:41:20;;;;;;;16.42;10.73;;;;;;;;;;5030866;28;20470;-80
2022/04/05 10:44:18;;;;;;;17.40;10.45;;;;;;;;;;5015471;28;20120;-81
2022/04/05 10:46:54;;;;;;;27.92;9.00;;;;;;;;;;5013032;28;20442;-82
2022/04/05 10:49:39;;;;;;;17.65;9.52;;;;;;;;;;4995645;28;20042;-81
2022/04/05 10:52:20;;;;;;;19.48;9.45;;;;;;;;;;5013592;28;20497;-83
2022/04/05 10:54:47;;;;;;;18.45;8.38;;;;;;;;;;5015754;28;20096;-80
2022/04/05 10:57:34;;;;;;;18.15;8.68;;;;;;;;;;5017836;28;20029;-80
2022/04/05 11:00:07;;;;;;;15.30;9.45;;;;;;;;;;5032839;28;20032;-81
2022/04/05 11:03:06;;;;;;;15.85;7.60;;;;;;;;;;5017585;28;20120;-80
2022/04/05 11:05:37;;;;;;;16.33;8.43;;;;;;;;;;5012232;28;20042;-80
2022/04/05 11:08:06;;;;;;;19.98;9.05;;;;;;;;;;5017517;28;20030;-79
2022/04/05 11:10:52;;;;;;;12.23;8.00;;;;;;;;;;5017277;28;20431;-79
2022/04/05 11:13:34;;;;;;;14.65;7.93;;;;;;;;;;4999479;28;20049;-80
2022/04/05 11:16:00;;;;;;;13.70;7.32;;;;;;;;;;5016920;28;20117;-79
2022/04/05 11:18:28;;;;;;;14.05;8.23;;;;;;;;;;5015962;28;20115;-79
2022/04/05 11:20:54;;;;;;;12.45;7.43;;;;;;;;;;5032281;28;20030;-79
2022/04/05 11:23:36;;;;;;;12.77;6.90;;;;;;;;;;5032354;28;20026;-79
2022/04/05 11:26:21;;;;;;;13.82;8.82;;;;;;;;;;5017288;28;20136;-79
2022/04/05 11:28:47;;;;;;;15.38;7.80;;;;;;;;;;5016910;28;20034;-79
2022/04/05 11:31:30;;;;;;;15.20;7.13;;;;;;;;;;5015460;28;20036;-79
2022/04/05 11:33:55;;;;;;;14.20;7.10;;;;;;;;;;5017075;28;20128;-79
2022/04/05 11:36:25;;;;;;;12.60;7.00;;;;;;;;;;4999914;28;20144;-78
2022/04/05 11:39:00;;;;;;;;;;;;;;;;;;5000416;28;20033;-79
2022/04/05 11:41:27;;;;;;;19.88;6.70;;;;;;;;;;5026897;28;19917;-78
2022/04/05 11:43:57;;;;;;;8.65;5.10;;;;;;;;;;5035426;28;20443;-80
2022/04/05 11:46:26;;;;;;;11.15;6.30;;;;;;;;;;5034985;28;20049;-79
2022/04/05 11:48:53;;;;;;;10.80;5.80;;;;;;;;;;5035672;28;20053;-80
2022/04/05 11:51:24;;;;;;;9.52;5.68;;;;;;;;;;5036343;28;20051;-79
2022/04/05 11:53:50;;;;;;;15.70;7.05;;;;;;;;;;5036556;28;20116;-80
2022/04/05 11:56:25;;;;;;;10.00;6.57;;;;;;;;;;5018449;28;20546;-78
2022/04/05 11:58:56;;;;;;;10.10;4.40;;;;;;;;;;5036279;28;20037;-79
2022/04/05 12:01:32;;;;;;;8.00;5.25;;;;;;;;;;5036122;28;20014;-78
2022/04/05 12:04:04;;;;;;;9.40;4.65;;;;;;;;;;5036071;28;20037;-79
2022/04/05 12:06:32;;;;;;;8.88;4.82;;;;;;;;;;5018314;28;20083;-78
2022/04/05 12:09:03;;;;;;;13.10;8.13;;;;;;;;;;5017387;28;20041;-80
2022/04/05 12:11:30;;;;;;;18.25;8.73;;;;;;;;;;5018316;28;20051;-79
2022/04/05 12:13:56;;;;;;;13.75;8.40;;;;;;;;;;5035607;28;20037;-78
2022/04/05 12:16:23;;;;;;;14.48;5.15;;;;;;;;;;5035004;28;20410;-77
2022/04/05 12:18:51;;;;;;;5.95;4.18;;;;;;;;;;5018105;28;20032;-77
2022/04/05 12:21:17;;;;;;;9.50;4.50;;;;;;;;;;5018416;28;20032;-77
2022/04/05 12:23:43;;;;;;;7.68;4.20;;;;;;;;;;5018467;28;20022;-77
2022/04/05 12:26:21;;;;;;;8.93;4.40;;;;;;;;;;5036048;28;20041;-77
2022/04/05 12:28:49;;;;;;;8.35;4.45;;;;;;;;;;5017924;28;20053;-77
2022/04/05 12:31:16;;;;;;;12.82;4.22;;;;;;;;;;5035245;28;20045;-77
2022/04/05 12:33:53;;;;;;;12.48;4.50;;;;;;;;;;5034570;28;20042;-77
2022/04/05 12:36:19;;;;;;;7.65;4.10;;;;;;;;;;5017830;28;20029;-76
2022/04/05 12:38:45;;;;;;;8.93;4.60;;;;;;;;;;5017715;28;20132;-77
2022/04/05 12:41:14;;;;;;;11.60;5.43;;;;;;;;;;5017446;28;20136;-77
2022/04/05 12:43:40;;;;;;;7.50;4.40;;;;;;;;;;5033888;28;20108;-76
2022/04/05 12:46:13;;;;;;;9.05;4.07;;;;;;;;;;5035990;28;20048;-77
2022/04/05 12:48:41;;;;;;;6.40;3.50;;;;;;;;;;5018097;28;20382;-76
2022/04/05 12:51:07;;;;;;;6.70;3.92;;;;;;;;;;5035257;28;20370;-77
2022/04/05 12:53:37;;;;;;;6.47;3.90;;;;;;;;;;5035089;28;20036;-76
2022/04/05 12:56:08;;;;;;;4.93;3.30;;;;;;;;;;5034048;28;20082;-76
2022/04/05 12:58:49;;;;;;;8.05;3.92;;;;;;;;;;5035275;28;20036;-77
2022/04/05 13:01:24;;;;;;;7.72;3.15;;;;;;;;;;5035069;28;20022;-77
2022/04/05 13:04:02;;;;;;;10.75;3.60;;;;;;;;;;5034928;28;20061;-77
2022/04/05 13:06:31;;;;;;;5.50;3.50;;;;;;;;;;5017744;28;20057;-77
2022/04/05 13:09:10;;;;;;;5.97;3.25;;;;;;;;;;5035318;28;20375;-77
2022/04/05 13:11:36;;;;;;;6.80;3.60;;;;;;;;;;5016943;28;20021;-78
2022/04/05 13:14:02;;;;;;;5.68;3.15;;;;;;;;;;5017189;28;20041;-77
2022/04/05 13:16:28;;;;;;;9.15;3.80;;;;;;;;;;5034063;28;20030;-76
2022/04/05 13:18:53;;;;;;;5.90;3.10;;;;;;;;;;5034632;28;20028;-77
2022/04/05 13:21:20;;;;;;;9.52;3.25;;;;;;;;;;5034613;28;20033;-77
2022/04/05 13:23:59;;;;;;;6.28;3.40;;;;;;;;;;5034639;28;20025;-77
2022/04/05 13:26:26;;;;;;;9.02;3.88;;;;;;;;;;5035843;28;20032;-78
2022/04/05 13:29:07;;;;;;;7.80;3.30;;;;;;;;;;5035706;28;20124;-76
2022/04/05 13:31:33;;;;;;;6.90;3.67;;;;;;;;;;5033250;28;20022;-77
2022/04/05 13:33:59;;;;;;;6.28;3.40;;;;;;;;;;5034474;28;20032;-77
2022/04/05 13:36:24;;;;;;;7.85;3.53;;;;;;;;;;5034888;28;20053;-77
2022/04/05 13:38:50;;;;;;;9.40;3.20;;;;;;;;;;5033177;28;20371;-76
2022/04/05 13:41:15;;;;;;;8.50;3.90;;;;;;;;;;5033841;28;20188;-77
2022/04/05 13:43:41;;;;;;;5.85;3.40;;;;;;;;;;5034480;28;20029;-76
2022/04/05 13:46:06;;;;;;;8.88;3.65;;;;;;;;;;5034145;28;20033;-77
2022/04/05 13:48:32;;;;;;;8.68;3.60;;;;;;;;;;5036269;28;20144;-77
2022/04/05 13:50:57;;;;;;;9.18;3.95;;;;;;;;;;5034761;28;20497;-77
2022/04/05 13:53:23;;;;;;;5.25;3.10;;;;;;;;;;5034305;28;20108;-77
2022/04/05 13:55:49;;;;;;;4.78;3.20;;;;;;;;;;5034098;28;20021;-77
2022/04/05 13:58:15;;;;;;;5.85;3.42;;;;;;;;;;5034155;28;20026;-77
2022/04/05 14:00:40;;;;;;;7.45;3.53;;;;;;;;;;5034642;28;20124;-76
2022/04/05 14:03:07;;;;;;;7.65;3.22;;;;;;;;;;5034136;28;20036;-76
2022/04/05 14:05:33;;;;;;;6.28;3.75;;;;;;;;;;5034368;28;20051;-76
2022/04/05 14:07:58;;;;;;;9.95;3.60;;;;;;;;;;5034463;28;20079;-76
2022/04/05 14:10:24;;;;;;;6.28;3.38;;;;;;;;;;5034022;28;20095;-77
2022/04/05 14:12:49;;;;;;;8.13;3.88;;;;;;;;;;5033999;28;20358;-77
2022/04/05 14:15:15;;;;;;;6.70;3.55;;;;;;;;;;5033850;28;20037;-76
2022/04/05 14:17:40;;;;;;;19.70;13.20;;;;;;;;;;5032916;28;20026;-77
2022/04/05 14:20:07;;;;;;;8.95;5.00;;;;;;;;;;5032678;28;20032;-76
2022/04/05 14:22:32;;;;;;;8.45;4.72;;;;;;;;;;5016595;28;20423;-76
2022/04/05 14:24:58;;;;;;;9.70;5.10;;;;;;;;;;5033616;28;20036;-77